TAP1710 LPMA-LPPR
Flight info
| Callsign | TAP1710 |
|---|---|
| Flight time | 1h 37m |
| Altitude | 36000 |
| Route | DEGUN DCT VABEM DCT ASMAR DCT DIRMA DCT ASMOV |
| Aircraft | A20N/M-SDE2E3FGHIRWXY/LB1 |
Departure
| Time | 2026-05-06 15:57 |
|---|---|
| Airport | Cristiano Ronaldo International Airport (LPMA) |
Arrival
| Time | 2026-05-06 17:35 |
|---|---|
| Airport | Francisco de Sá Carneiro Airport (LPPR) |
| Time | Latitude | Longitude | Altitude | Speed | Heading |
|---|---|---|---|---|---|
| 2026-05-06 15:44 | 32.69413 | -16.77591 | 174 ft | 0 kts | 138° |
| 2026-05-06 15:45 | 32.69389 | -16.77626 | 173 ft | 0 kts | 136° |
| 2026-05-06 15:50 | 32.69390 | -16.77627 | 173 ft | 1 kts | 136° |
| 2026-05-06 15:51 | 32.69401 | -16.77641 | 171 ft | 3 kts | 134° |
| 2026-05-06 15:51 | 32.69415 | -16.77656 | 170 ft | 3 kts | 147° |
| 2026-05-06 15:51 | 32.69432 | -16.77665 | 170 ft | 3 kts | 182° |
| 2026-05-06 15:51 | 32.69447 | -16.77660 | 170 ft | 2 kts | 223° |
| 2026-05-06 15:52 | 32.69449 | -16.77658 | 170 ft | 1 kts | 225° |
| 2026-05-06 15:54 | 32.69439 | -16.77670 | 170 ft | 6 kts | 225° |
| 2026-05-06 15:54 | 32.69386 | -16.77737 | 167 ft | 17 kts | 226° |
| 2026-05-06 15:54 | 32.69298 | -16.77849 | 167 ft | 17 kts | 241° |
| 2026-05-06 15:55 | 32.69287 | -16.77952 | 162 ft | 16 kts | 269° |
| 2026-05-06 15:55 | 32.69233 | -16.78090 | 160 ft | 23 kts | 226° |
| 2026-05-06 15:55 | 32.69099 | -16.78247 | 160 ft | 25 kts | 224° |
| 2026-05-06 15:55 | 32.68984 | -16.78375 | 157 ft | 19 kts | 213° |
| 2026-05-06 15:56 | 32.68887 | -16.78429 | 155 ft | 12 kts | 243° |
| 2026-05-06 15:56 | 32.68932 | -16.78447 | 155 ft | 10 kts | 47° |
| 2026-05-06 15:56 | 32.68965 | -16.78403 | 156 ft | 0 kts | 44° |
| 2026-05-06 15:56 | 32.68966 | -16.78402 | 156 ft | 1 kts | 44° |
| 2026-05-06 15:57 | 32.69077 | -16.78274 | 160 ft | 54 kts | 44° |
| 2026-05-06 15:57 | 32.69502 | -16.77778 | 169 ft | 114 kts | 44° |
| 2026-05-06 15:57 | 32.70149 | -16.76998 | 378 ft | 138 kts | 43° |
| 2026-05-06 15:57 | 32.70798 | -16.76178 | 991 ft | 139 kts | 44° |
| 2026-05-06 15:58 | 32.71243 | -16.75142 | 1626 ft | 147 kts | 76° |
| 2026-05-06 15:58 | 32.71105 | -16.73910 | 2166 ft | 161 kts | 107° |
| 2026-05-06 15:58 | 32.70690 | -16.72599 | 2595 ft | 179 kts | 107° |
| 2026-05-06 15:58 | 32.70220 | -16.71136 | 2955 ft | 200 kts | 108° |
| 2026-05-06 15:59 | 32.69698 | -16.69532 | 3422 ft | 216 kts | 108° |
| 2026-05-06 15:59 | 32.69121 | -16.67760 | 3859 ft | 242 kts | 108° |
| 2026-05-06 15:59 | 32.68498 | -16.65810 | 4425 ft | 263 kts | 104° |
| 2026-05-06 15:59 | 32.68359 | -16.63630 | 5183 ft | 269 kts | 76° |
| 2026-05-06 16:00 | 32.69100 | -16.61606 | 6088 ft | 270 kts | 51° |
| 2026-05-06 16:00 | 32.70337 | -16.59894 | 6940 ft | 276 kts | 43° |
| 2026-05-06 16:00 | 32.71694 | -16.58277 | 7925 ft | 277 kts | 41° |
| 2026-05-06 16:00 | 32.73058 | -16.56653 | 8919 ft | 279 kts | 43° |
| 2026-05-06 16:01 | 32.74410 | -16.54974 | 9891 ft | 283 kts | 44° |
| 2026-05-06 16:01 | 32.75741 | -16.53252 | 10597 ft | 295 kts | 44° |
| 2026-05-06 16:01 | 32.77185 | -16.51377 | 10925 ft | 319 kts | 45° |
| 2026-05-06 16:01 | 32.78735 | -16.49369 | 11317 ft | 338 kts | 45° |
| 2026-05-06 16:02 | 32.80333 | -16.47286 | 12087 ft | 343 kts | 45° |
| 2026-05-06 16:02 | 32.81950 | -16.45172 | 12909 ft | 348 kts | 45° |
| 2026-05-06 16:02 | 32.83588 | -16.43026 | 13707 ft | 353 kts | 45° |
| 2026-05-06 16:02 | 32.85250 | -16.40845 | 14421 ft | 358 kts | 45° |
| 2026-05-06 16:03 | 32.86931 | -16.38637 | 15171 ft | 362 kts | 45° |
| 2026-05-06 16:03 | 32.88628 | -16.36408 | 15891 ft | 366 kts | 45° |
| 2026-05-06 16:03 | 32.90346 | -16.34150 | 16599 ft | 370 kts | 44° |
| 2026-05-06 16:03 | 32.92080 | -16.31870 | 17304 ft | 374 kts | 44° |
| 2026-05-06 16:04 | 32.93836 | -16.29560 | 17993 ft | 378 kts | 44° |
| 2026-05-06 16:04 | 32.95611 | -16.27224 | 18646 ft | 382 kts | 44° |
| 2026-05-06 16:04 | 32.97398 | -16.24870 | 19306 ft | 384 kts | 44° |
| 2026-05-06 16:04 | 32.99168 | -16.22536 | 19957 ft | 386 kts | 44° |
| 2026-05-06 16:05 | 33.00995 | -16.20125 | 20599 ft | 388 kts | 44° |
| 2026-05-06 16:05 | 33.02812 | -16.17728 | 21219 ft | 391 kts | 44° |
| 2026-05-06 16:05 | 33.04615 | -16.15347 | 21832 ft | 394 kts | 43° |
| 2026-05-06 16:05 | 33.06454 | -16.12919 | 22450 ft | 396 kts | 43° |
| 2026-05-06 16:06 | 33.08308 | -16.10469 | 23040 ft | 400 kts | 43° |
| 2026-05-06 16:06 | 33.10179 | -16.07994 | 23617 ft | 403 kts | 43° |
| 2026-05-06 16:06 | 33.12085 | -16.05472 | 24134 ft | 405 kts | 43° |
| 2026-05-06 16:06 | 33.13952 | -16.02999 | 24636 ft | 407 kts | 43° |
| 2026-05-06 16:07 | 33.15853 | -16.00479 | 25112 ft | 410 kts | 43° |
| 2026-05-06 16:07 | 33.17769 | -15.97939 | 25584 ft | 413 kts | 43° |
| 2026-05-06 16:07 | 33.19696 | -15.95383 | 26065 ft | 415 kts | 43° |
| 2026-05-06 16:07 | 33.21632 | -15.92812 | 26525 ft | 417 kts | 43° |
| 2026-05-06 16:08 | 33.23578 | -15.90226 | 26969 ft | 420 kts | 43° |
| 2026-05-06 16:08 | 33.25539 | -15.87619 | 27384 ft | 423 kts | 43° |
| 2026-05-06 16:08 | 33.27507 | -15.85001 | 27830 ft | 425 kts | 43° |
| 2026-05-06 16:08 | 33.29485 | -15.82367 | 28262 ft | 427 kts | 42° |
| 2026-05-06 16:09 | 33.31471 | -15.79721 | 28655 ft | 429 kts | 42° |
| 2026-05-06 16:09 | 33.33469 | -15.77057 | 29034 ft | 432 kts | 42° |
| 2026-05-06 16:09 | 33.35475 | -15.74380 | 29418 ft | 433 kts | 42° |
| 2026-05-06 16:09 | 33.37492 | -15.71685 | 29791 ft | 436 kts | 42° |
| 2026-05-06 16:10 | 33.39523 | -15.68980 | 30142 ft | 437 kts | 41° |
| 2026-05-06 16:10 | 33.41712 | -15.66469 | 30437 ft | 435 kts | 34° |
| 2026-05-06 16:10 | 33.44112 | -15.64286 | 30722 ft | 433 kts | 28° |
| 2026-05-06 16:10 | 33.46678 | -15.62402 | 31006 ft | 433 kts | 25° |
| 2026-05-06 16:11 | 33.49278 | -15.60554 | 31299 ft | 436 kts | 26° |
| 2026-05-06 16:11 | 33.51884 | -15.58685 | 31651 ft | 437 kts | 26° |
| 2026-05-06 16:11 | 33.54492 | -15.56812 | 32029 ft | 437 kts | 26° |
| 2026-05-06 16:11 | 33.57099 | -15.54941 | 32397 ft | 437 kts | 26° |
| 2026-05-06 16:12 | 33.59711 | -15.53068 | 32734 ft | 438 kts | 26° |
| 2026-05-06 16:12 | 33.62327 | -15.51194 | 33078 ft | 438 kts | 26° |
| 2026-05-06 16:12 | 33.64943 | -15.49318 | 33440 ft | 438 kts | 26° |
| 2026-05-06 16:12 | 33.67555 | -15.47442 | 33788 ft | 438 kts | 26° |
| 2026-05-06 16:13 | 33.70172 | -15.45563 | 34105 ft | 438 kts | 26° |
| 2026-05-06 16:13 | 33.72787 | -15.43683 | 34373 ft | 438 kts | 26° |
| 2026-05-06 16:13 | 33.75400 | -15.41802 | 34699 ft | 437 kts | 26° |
| 2026-05-06 16:13 | 33.78004 | -15.39926 | 34996 ft | 436 kts | 26° |
| 2026-05-06 16:14 | 33.80605 | -15.38051 | 35292 ft | 435 kts | 26° |
| 2026-05-06 16:14 | 33.83201 | -15.36179 | 35561 ft | 435 kts | 26° |
| 2026-05-06 16:14 | 33.85794 | -15.34307 | 35837 ft | 434 kts | 26° |
| 2026-05-06 16:14 | 33.88385 | -15.32436 | 36002 ft | 434 kts | 26° |
| 2026-05-06 16:15 | 33.93553 | -15.28699 | 36084 ft | 433 kts | 26° |
| 2026-05-06 16:15 | 33.98718 | -15.24960 | 36087 ft | 433 kts | 26° |
| 2026-05-06 16:16 | 34.03886 | -15.21213 | 36086 ft | 434 kts | 26° |
| 2026-05-06 16:16 | 34.09064 | -15.17452 | 36086 ft | 434 kts | 26° |
| 2026-05-06 16:17 | 34.14248 | -15.13684 | 36089 ft | 436 kts | 26° |
| 2026-05-06 16:17 | 34.19385 | -15.09943 | 36098 ft | 437 kts | 26° |
| 2026-05-06 16:18 | 34.24632 | -15.06116 | 36094 ft | 438 kts | 26° |
| 2026-05-06 16:18 | 34.29830 | -15.02318 | 36090 ft | 436 kts | 26° |
| 2026-05-06 16:19 | 34.35033 | -14.98514 | 36090 ft | 438 kts | 26° |
| 2026-05-06 16:19 | 34.40238 | -14.94701 | 36086 ft | 437 kts | 26° |
| 2026-05-06 16:20 | 34.45450 | -14.90877 | 36090 ft | 439 kts | 26° |
| 2026-05-06 16:20 | 34.50666 | -14.87045 | 36075 ft | 438 kts | 26° |
| 2026-05-06 16:21 | 34.55881 | -14.83207 | 36079 ft | 438 kts | 26° |
| 2026-05-06 16:21 | 34.61087 | -14.79370 | 36075 ft | 438 kts | 26° |
| 2026-05-06 16:22 | 34.66297 | -14.75526 | 36068 ft | 438 kts | 26° |
| 2026-05-06 16:22 | 34.71506 | -14.71676 | 36070 ft | 438 kts | 26° |
| 2026-05-06 16:23 | 34.76721 | -14.67815 | 36064 ft | 439 kts | 26° |
| 2026-05-06 16:23 | 34.81941 | -14.63946 | 36073 ft | 440 kts | 26° |
| 2026-05-06 16:24 | 34.87166 | -14.60066 | 36068 ft | 440 kts | 26° |
| 2026-05-06 16:24 | 34.92401 | -14.56174 | 36074 ft | 441 kts | 26° |
| 2026-05-06 16:25 | 34.96762 | -14.52927 | 36072 ft | 442 kts | 26° |
| 2026-05-06 16:25 | 35.02015 | -14.49010 | 36076 ft | 443 kts | 26° |
| 2026-05-06 16:26 | 35.07279 | -14.45079 | 36073 ft | 444 kts | 26° |
| 2026-05-06 16:26 | 35.12556 | -14.41132 | 36079 ft | 445 kts | 26° |
| 2026-05-06 16:27 | 35.17840 | -14.37174 | 36078 ft | 446 kts | 26° |
| 2026-05-06 16:27 | 35.23132 | -14.33203 | 36084 ft | 447 kts | 27° |
| 2026-05-06 16:28 | 35.28432 | -14.29221 | 36085 ft | 447 kts | 27° |
| 2026-05-06 16:28 | 35.33740 | -14.25227 | 36085 ft | 448 kts | 27° |
| 2026-05-06 16:29 | 35.39050 | -14.21224 | 36079 ft | 449 kts | 27° |
| 2026-05-06 16:29 | 35.44368 | -14.17210 | 36065 ft | 450 kts | 27° |
| 2026-05-06 16:30 | 35.48798 | -14.13861 | 36066 ft | 450 kts | 27° |
| 2026-05-06 16:30 | 35.55039 | -14.09135 | 36065 ft | 451 kts | 27° |
| 2026-05-06 16:31 | 35.60383 | -14.05081 | 36066 ft | 452 kts | 27° |
| 2026-05-06 16:31 | 35.65741 | -14.01011 | 36067 ft | 453 kts | 27° |
| 2026-05-06 16:32 | 35.71068 | -13.96957 | 36073 ft | 454 kts | 27° |
| 2026-05-06 16:32 | 35.76443 | -13.92861 | 36071 ft | 455 kts | 27° |
| 2026-05-06 16:33 | 35.81823 | -13.88753 | 36074 ft | 455 kts | 27° |
| 2026-05-06 16:34 | 35.89908 | -13.82569 | 36075 ft | 456 kts | 27° |
| 2026-05-06 16:34 | 35.95304 | -13.78433 | 36075 ft | 457 kts | 27° |
| 2026-05-06 16:35 | 36.00705 | -13.74286 | 36068 ft | 457 kts | 27° |
| 2026-05-06 16:35 | 36.06112 | -13.70128 | 36072 ft | 458 kts | 27° |
| 2026-05-06 16:36 | 36.11520 | -13.65962 | 36072 ft | 458 kts | 27° |
| 2026-05-06 16:36 | 36.16929 | -13.61789 | 36063 ft | 458 kts | 28° |
| 2026-05-06 16:37 | 36.22342 | -13.57606 | 36064 ft | 459 kts | 28° |
| 2026-05-06 16:37 | 36.27757 | -13.53414 | 36064 ft | 459 kts | 28° |
| 2026-05-06 16:38 | 36.33174 | -13.49214 | 36061 ft | 459 kts | 28° |
| 2026-05-06 16:38 | 36.38592 | -13.45006 | 36058 ft | 460 kts | 28° |
| 2026-05-06 16:39 | 36.44016 | -13.40787 | 36057 ft | 460 kts | 28° |
| 2026-05-06 16:39 | 36.49442 | -13.36562 | 36059 ft | 461 kts | 28° |
| 2026-05-06 16:40 | 36.54889 | -13.32362 | 36053 ft | 459 kts | 25° |
| 2026-05-06 16:40 | 36.60625 | -13.28925 | 36056 ft | 458 kts | 21° |
| 2026-05-06 16:41 | 36.66387 | -13.25545 | 36051 ft | 458 kts | 21° |
| 2026-05-06 16:41 | 36.72157 | -13.22149 | 36052 ft | 459 kts | 21° |
| 2026-05-06 16:42 | 36.77935 | -13.18743 | 36053 ft | 460 kts | 21° |
| 2026-05-06 16:42 | 36.83723 | -13.15323 | 36057 ft | 461 kts | 21° |
| 2026-05-06 16:43 | 36.89480 | -13.11917 | 36059 ft | 461 kts | 21° |
| 2026-05-06 16:43 | 36.95283 | -13.08477 | 36059 ft | 462 kts | 21° |
| 2026-05-06 16:44 | 37.01090 | -13.05030 | 36060 ft | 462 kts | 21° |
| 2026-05-06 16:44 | 37.06905 | -13.01571 | 36060 ft | 463 kts | 21° |
| 2026-05-06 16:45 | 37.12729 | -12.98101 | 36061 ft | 464 kts | 21° |
| 2026-05-06 16:45 | 37.18558 | -12.94622 | 36062 ft | 464 kts | 21° |
| 2026-05-06 16:46 | 37.24391 | -12.91135 | 36057 ft | 465 kts | 21° |
| 2026-05-06 16:46 | 37.30229 | -12.87639 | 36061 ft | 465 kts | 21° |
| 2026-05-06 16:47 | 37.36069 | -12.84135 | 36059 ft | 465 kts | 21° |
| 2026-05-06 16:47 | 37.41912 | -12.80624 | 36054 ft | 466 kts | 21° |
| 2026-05-06 16:48 | 37.47758 | -12.77105 | 36053 ft | 466 kts | 21° |
| 2026-05-06 16:48 | 37.53605 | -12.73579 | 36050 ft | 466 kts | 21° |
| 2026-05-06 16:49 | 37.59460 | -12.70042 | 36050 ft | 467 kts | 21° |
| 2026-05-06 16:49 | 37.65315 | -12.66499 | 36048 ft | 467 kts | 21° |
| 2026-05-06 16:50 | 37.71176 | -12.62946 | 36046 ft | 468 kts | 21° |
| 2026-05-06 16:50 | 37.77043 | -12.59383 | 36046 ft | 468 kts | 21° |
| 2026-05-06 16:51 | 37.82918 | -12.55809 | 36044 ft | 469 kts | 21° |
| 2026-05-06 16:51 | 37.88794 | -12.52228 | 36046 ft | 469 kts | 21° |
| 2026-05-06 16:52 | 37.94643 | -12.48656 | 36050 ft | 470 kts | 21° |
| 2026-05-06 16:52 | 38.00574 | -12.45028 | 36052 ft | 470 kts | 21° |
| 2026-05-06 16:53 | 38.06430 | -12.41440 | 36057 ft | 471 kts | 21° |
| 2026-05-06 16:53 | 38.12330 | -12.37819 | 36060 ft | 471 kts | 21° |
| 2026-05-06 16:54 | 38.18233 | -12.34189 | 36054 ft | 472 kts | 21° |
| 2026-05-06 16:54 | 38.24139 | -12.30550 | 36053 ft | 472 kts | 21° |
| 2026-05-06 16:55 | 38.30050 | -12.26902 | 36050 ft | 472 kts | 21° |
| 2026-05-06 16:55 | 38.35957 | -12.23249 | 36055 ft | 472 kts | 21° |
| 2026-05-06 16:56 | 38.41868 | -12.19588 | 36049 ft | 472 kts | 21° |
| 2026-05-06 16:56 | 38.47772 | -12.15924 | 36049 ft | 472 kts | 21° |
| 2026-05-06 16:57 | 38.53680 | -12.12251 | 36046 ft | 472 kts | 21° |
| 2026-05-06 16:57 | 38.59580 | -12.08576 | 36054 ft | 472 kts | 21° |
| 2026-05-06 16:58 | 38.65476 | -12.04897 | 36042 ft | 471 kts | 21° |
| 2026-05-06 16:58 | 38.71370 | -12.01213 | 36035 ft | 471 kts | 21° |
| 2026-05-06 16:59 | 38.77253 | -11.97528 | 36033 ft | 471 kts | 21° |
| 2026-05-06 16:59 | 38.83134 | -11.93838 | 36035 ft | 470 kts | 21° |
| 2026-05-06 17:00 | 38.89010 | -11.90145 | 36037 ft | 470 kts | 21° |
| 2026-05-06 17:00 | 38.94878 | -11.86450 | 36036 ft | 470 kts | 21° |
| 2026-05-06 17:01 | 39.00742 | -11.82750 | 36039 ft | 469 kts | 21° |
| 2026-05-06 17:01 | 39.06602 | -11.79046 | 36037 ft | 469 kts | 22° |
| 2026-05-06 17:02 | 39.12451 | -11.75342 | 36026 ft | 468 kts | 22° |
| 2026-05-06 17:02 | 39.18294 | -11.71635 | 36035 ft | 468 kts | 22° |
| 2026-05-06 17:03 | 39.24090 | -11.67951 | 36034 ft | 467 kts | 22° |
| 2026-05-06 17:03 | 39.29908 | -11.64248 | 36034 ft | 466 kts | 22° |
| 2026-05-06 17:04 | 39.35609 | -11.60231 | 36030 ft | 470 kts | 30° |
| 2026-05-06 17:04 | 39.40672 | -11.54847 | 36026 ft | 474 kts | 43° |
| 2026-05-06 17:05 | 39.45195 | -11.48634 | 36025 ft | 474 kts | 44° |
| 2026-05-06 17:05 | 39.49728 | -11.42438 | 36021 ft | 474 kts | 44° |
| 2026-05-06 17:06 | 39.54249 | -11.36224 | 36018 ft | 474 kts | 44° |
| 2026-05-06 17:06 | 39.58756 | -11.30004 | 36014 ft | 473 kts | 44° |
| 2026-05-06 17:07 | 39.63259 | -11.23776 | 36018 ft | 473 kts | 44° |
| 2026-05-06 17:07 | 39.67756 | -11.17542 | 36018 ft | 473 kts | 44° |
| 2026-05-06 17:08 | 39.72249 | -11.11302 | 36017 ft | 473 kts | 44° |
| 2026-05-06 17:08 | 39.76740 | -11.05052 | 36018 ft | 473 kts | 44° |
| 2026-05-06 17:09 | 39.81228 | -10.98795 | 36014 ft | 473 kts | 44° |
| 2026-05-06 17:09 | 39.85710 | -10.92531 | 36006 ft | 473 kts | 44° |
| 2026-05-06 17:10 | 39.90192 | -10.86255 | 36003 ft | 473 kts | 44° |
| 2026-05-06 17:10 | 39.94641 | -10.80013 | 36011 ft | 473 kts | 44° |
| 2026-05-06 17:11 | 39.99148 | -10.73675 | 36008 ft | 474 kts | 44° |
| 2026-05-06 17:11 | 40.03593 | -10.67412 | 36011 ft | 474 kts | 44° |
| 2026-05-06 17:12 | 40.08070 | -10.61091 | 36014 ft | 474 kts | 44° |
| 2026-05-06 17:12 | 40.12543 | -10.54762 | 36011 ft | 474 kts | 44° |
| 2026-05-06 17:13 | 40.17016 | -10.48421 | 36006 ft | 475 kts | 44° |
| 2026-05-06 17:13 | 40.20766 | -10.43095 | 35489 ft | 476 kts | 44° |
| 2026-05-06 17:13 | 40.23010 | -10.39903 | 34791 ft | 478 kts | 44° |
| 2026-05-06 17:14 | 40.25275 | -10.36679 | 33899 ft | 484 kts | 44° |
| 2026-05-06 17:14 | 40.27563 | -10.33420 | 32825 ft | 489 kts | 44° |
| 2026-05-06 17:14 | 40.29839 | -10.30173 | 31892 ft | 490 kts | 44° |
| 2026-05-06 17:14 | 40.32144 | -10.26879 | 31000 ft | 491 kts | 45° |
| 2026-05-06 17:15 | 40.34437 | -10.23580 | 30269 ft | 488 kts | 47° |
| 2026-05-06 17:15 | 40.36415 | -10.19951 | 29213 ft | 493 kts | 58° |
| 2026-05-06 17:15 | 40.38043 | -10.15934 | 28403 ft | 490 kts | 61° |
| 2026-05-06 17:15 | 40.39541 | -10.12010 | 27709 ft | 484 kts | 61° |
| 2026-05-06 17:16 | 40.41065 | -10.08037 | 27012 ft | 478 kts | 61° |
| 2026-05-06 17:16 | 40.42552 | -10.04225 | 26337 ft | 473 kts | 60° |
| 2026-05-06 17:16 | 40.44059 | -10.00410 | 25679 ft | 468 kts | 60° |
| 2026-05-06 17:16 | 40.45556 | -9.96644 | 25035 ft | 463 kts | 60° |
| 2026-05-06 17:17 | 40.47042 | -9.92918 | 24403 ft | 458 kts | 60° |
| 2026-05-06 17:17 | 40.48510 | -9.89234 | 23783 ft | 454 kts | 60° |
| 2026-05-06 17:17 | 40.49967 | -9.85572 | 23088 ft | 449 kts | 60° |
| 2026-05-06 17:17 | 40.51403 | -9.81958 | 22409 ft | 444 kts | 60° |
| 2026-05-06 17:18 | 40.52825 | -9.78375 | 21742 ft | 439 kts | 60° |
| 2026-05-06 17:18 | 40.54229 | -9.74834 | 21068 ft | 435 kts | 59° |
| 2026-05-06 17:18 | 40.55616 | -9.71331 | 20420 ft | 430 kts | 59° |
| 2026-05-06 17:18 | 40.56989 | -9.67860 | 19787 ft | 426 kts | 59° |
| 2026-05-06 17:19 | 40.58349 | -9.64417 | 19152 ft | 422 kts | 59° |
| 2026-05-06 17:19 | 40.59693 | -9.61010 | 18558 ft | 417 kts | 59° |
| 2026-05-06 17:19 | 40.61022 | -9.57637 | 17908 ft | 413 kts | 59° |
| 2026-05-06 17:19 | 40.62337 | -9.54299 | 17271 ft | 408 kts | 59° |
| 2026-05-06 17:20 | 40.63634 | -9.51002 | 16651 ft | 403 kts | 59° |
| 2026-05-06 17:20 | 40.64912 | -9.47749 | 16105 ft | 397 kts | 59° |
| 2026-05-06 17:20 | 40.66171 | -9.44539 | 15562 ft | 392 kts | 60° |
| 2026-05-06 17:20 | 40.67412 | -9.41374 | 15032 ft | 386 kts | 60° |
| 2026-05-06 17:21 | 40.68636 | -9.38248 | 14500 ft | 381 kts | 60° |
| 2026-05-06 17:21 | 40.69843 | -9.35162 | 13983 ft | 377 kts | 60° |
| 2026-05-06 17:21 | 40.71034 | -9.32113 | 13446 ft | 372 kts | 60° |
| 2026-05-06 17:21 | 40.72208 | -9.29106 | 12936 ft | 366 kts | 60° |
| 2026-05-06 17:22 | 40.73362 | -9.26144 | 12443 ft | 360 kts | 60° |
| 2026-05-06 17:22 | 40.74499 | -9.23228 | 11955 ft | 355 kts | 60° |
| 2026-05-06 17:22 | 40.75622 | -9.20347 | 11465 ft | 351 kts | 60° |
| 2026-05-06 17:22 | 40.76728 | -9.17507 | 10985 ft | 346 kts | 60° |
| 2026-05-06 17:23 | 40.77818 | -9.14696 | 10514 ft | 342 kts | 60° |
| 2026-05-06 17:23 | 40.78887 | -9.11937 | 10286 ft | 331 kts | 60° |
| 2026-05-06 17:23 | 40.79910 | -9.09290 | 10155 ft | 317 kts | 60° |
| 2026-05-06 17:23 | 40.80890 | -9.06759 | 10027 ft | 303 kts | 60° |
| 2026-05-06 17:24 | 40.81833 | -9.04325 | 9810 ft | 294 kts | 60° |
| 2026-05-06 17:24 | 40.82752 | -9.01950 | 9513 ft | 288 kts | 60° |
| 2026-05-06 17:24 | 40.83655 | -8.99616 | 9170 ft | 283 kts | 60° |
| 2026-05-06 17:24 | 40.84543 | -8.97316 | 8839 ft | 279 kts | 60° |
| 2026-05-06 17:25 | 40.85419 | -8.95047 | 8507 ft | 275 kts | 60° |
| 2026-05-06 17:25 | 40.86283 | -8.92809 | 8180 ft | 271 kts | 60° |
| 2026-05-06 17:25 | 40.87134 | -8.90600 | 7853 ft | 268 kts | 60° |
| 2026-05-06 17:25 | 40.87973 | -8.88421 | 7538 ft | 265 kts | 60° |
| 2026-05-06 17:26 | 40.88803 | -8.86267 | 7226 ft | 262 kts | 60° |
| 2026-05-06 17:26 | 40.89625 | -8.84130 | 6910 ft | 259 kts | 60° |
| 2026-05-06 17:26 | 40.90437 | -8.82018 | 6601 ft | 257 kts | 60° |
| 2026-05-06 17:26 | 40.91241 | -8.79924 | 6293 ft | 254 kts | 60° |
| 2026-05-06 17:27 | 40.92039 | -8.77842 | 6087 ft | 261 kts | 60° |
| 2026-05-06 17:27 | 40.92897 | -8.75617 | 5902 ft | 278 kts | 60° |
| 2026-05-06 17:27 | 40.93780 | -8.73316 | 5626 ft | 280 kts | 60° |
| 2026-05-06 17:27 | 40.94648 | -8.71045 | 5411 ft | 274 kts | 60° |
| 2026-05-06 17:28 | 40.95504 | -8.68799 | 5048 ft | 273 kts | 60° |
| 2026-05-06 17:28 | 40.96357 | -8.66567 | 4675 ft | 270 kts | 60° |
| 2026-05-06 17:28 | 40.97206 | -8.64350 | 4290 ft | 269 kts | 59° |
| 2026-05-06 17:28 | 40.98349 | -8.62475 | 4019 ft | 257 kts | 33° |
| 2026-05-06 17:29 | 40.99936 | -8.61626 | 3913 ft | 240 kts | 4° |
| 2026-05-06 17:29 | 41.01515 | -8.61869 | 3831 ft | 227 kts | 345° |
| 2026-05-06 17:29 | 41.03019 | -8.62351 | 3739 ft | 217 kts | 346° |
| 2026-05-06 17:29 | 41.04455 | -8.62781 | 3670 ft | 206 kts | 347° |
| 2026-05-06 17:30 | 41.05825 | -8.63161 | 3583 ft | 196 kts | 347° |
| 2026-05-06 17:30 | 41.07108 | -8.63507 | 3564 ft | 179 kts | 347° |
| 2026-05-06 17:30 | 41.08284 | -8.63819 | 3464 ft | 166 kts | 347° |
| 2026-05-06 17:30 | 41.09375 | -8.64100 | 3374 ft | 154 kts | 347° |
| 2026-05-06 17:31 | 41.10387 | -8.64363 | 3325 ft | 140 kts | 347° |
| 2026-05-06 17:31 | 41.11277 | -8.64591 | 3215 ft | 123 kts | 348° |
| 2026-05-06 17:31 | 41.12106 | -8.64800 | 2967 ft | 119 kts | 347° |
| 2026-05-06 17:31 | 41.12924 | -8.65009 | 2676 ft | 121 kts | 347° |
| 2026-05-06 17:32 | 41.13750 | -8.65224 | 2444 ft | 121 kts | 347° |
| 2026-05-06 17:32 | 41.14569 | -8.65439 | 2253 ft | 119 kts | 347° |
| 2026-05-06 17:32 | 41.15382 | -8.65656 | 1992 ft | 119 kts | 347° |
| 2026-05-06 17:32 | 41.16184 | -8.65866 | 1683 ft | 118 kts | 347° |
| 2026-05-06 17:33 | 41.16973 | -8.66072 | 1505 ft | 117 kts | 347° |
| 2026-05-06 17:33 | 41.17790 | -8.66284 | 1344 ft | 121 kts | 348° |
| 2026-05-06 17:33 | 41.18606 | -8.66502 | 1182 ft | 119 kts | 347° |
| 2026-05-06 17:33 | 41.19419 | -8.66720 | 1026 ft | 117 kts | 348° |
| 2026-05-06 17:34 | 41.20215 | -8.66918 | 879 ft | 118 kts | 347° |
| 2026-05-06 17:34 | 41.21013 | -8.67111 | 712 ft | 114 kts | 345° |
| 2026-05-06 17:34 | 41.21791 | -8.67315 | 596 ft | 117 kts | 345° |
| 2026-05-06 17:34 | 41.22593 | -8.67550 | 433 ft | 118 kts | 347° |
| 2026-05-06 17:35 | 41.23398 | -8.67753 | 267 ft | 116 kts | 346° |
| 2026-05-06 17:35 | 41.24142 | -8.67953 | 215 ft | 90 kts | 348° |
| 2026-05-06 17:35 | 41.24582 | -8.68068 | 214 ft | 45 kts | 348° |
| 2026-05-06 17:36 | 41.25060 | -8.68173 | 182 ft | 29 kts | 1° |
| 2026-05-06 17:36 | 41.25239 | -8.68124 | 178 ft | 19 kts | 19° |
| 2026-05-06 17:36 | 41.25294 | -8.68062 | 175 ft | 0 kts | 84° |
| 2026-05-06 17:37 | 41.25291 | -8.68045 | 175 ft | 4 kts | 108° |
| 2026-05-06 17:37 | 41.25280 | -8.68030 | 176 ft | 3 kts | 136° |
| 2026-05-06 17:37 | 41.25242 | -8.68012 | 178 ft | 10 kts | 168° |
| 2026-05-06 17:37 | 41.25151 | -8.67986 | 183 ft | 16 kts | 168° |
| 2026-05-06 17:38 | 41.25025 | -8.67953 | 193 ft | 21 kts | 169° |
| 2026-05-06 17:38 | 41.24887 | -8.67913 | 192 ft | 22 kts | 158° |
| 2026-05-06 17:38 | 41.24751 | -8.67829 | 204 ft | 21 kts | 165° |
| 2026-05-06 17:38 | 41.24608 | -8.67787 | 211 ft | 22 kts | 168° |
| 2026-05-06 17:39 | 41.24453 | -8.67746 | 218 ft | 23 kts | 168° |
| 2026-05-06 17:39 | 41.24297 | -8.67690 | 228 ft | 23 kts | 144° |
| 2026-05-06 17:39 | 41.24194 | -8.67574 | 236 ft | 20 kts | 163° |
| 2026-05-06 17:39 | 41.24042 | -8.67533 | 241 ft | 25 kts | 168° |
| 2026-05-06 17:40 | 41.23855 | -8.67485 | 236 ft | 28 kts | 169° |
| 2026-05-06 17:40 | 41.23734 | -8.67453 | 236 ft | 9 kts | 169° |
| 2026-05-06 17:40 | 41.23692 | -8.67471 | 236 ft | 7 kts | 252° |
| 2026-05-06 17:40 | 41.23691 | -8.67497 | 236 ft | 0 kts | 268° |
| 2026-05-06 17:41 | 41.23688 | -8.67523 | 241 ft | 6 kts | 260° |
| 2026-05-06 17:41 | 41.23684 | -8.67551 | 238 ft | 0 kts | 259° |